Time;durP1;ratioP1;P1;durP2;ratioP2;P2;SDS_P1;SDS_P2;PMS_P1;PMS_P2;Temp;Humidity;BMP_temperature;BMP_pressure;BME280_temperature;BME280_humidity;BME280_pressure;Samples;Min_cycle;Max_cycle;Signal;HPM_P1;HPM_P2
2022/09/13 00:00:49;;;;;;;12.40;8.53;;;17.10;75.40;;;;;;5001754;28;20499;-77
2022/09/13 00:03:18;;;;;;;15.73;9.43;;;17.10;75.40;;;;;;5008069;28;20494;-77
2022/09/13 00:05:49;;;;;;;12.47;9.20;;;17.10;75.40;;;;;;5011344;28;20532;-77
2022/09/13 00:08:19;;;;;;;14.23;9.37;;;17.10;75.30;;;;;;5013750;28;20509;-77
2022/09/13 00:10:48;;;;;;;13.77;8.67;;;17.10;75.40;;;;;;5023202;28;20988;-76
2022/09/13 00:13:17;;;;;;;12.43;9.00;;;17.10;75.40;;;;;;5013740;28;20531;-77
2022/09/13 00:15:46;;;;;;;12.20;8.17;;;17.10;75.40;;;;;;4999795;28;20522;-78
2022/09/13 00:18:15;;;;;;;12.10;7.50;;;17.10;75.40;;;;;;5000450;28;20446;-78
2022/09/13 00:20:43;;;;;;;12.43;8.50;;;17.10;75.40;;;;;;4999010;28;20544;-77
2022/09/13 00:23:11;;;;;;;12.50;9.20;;;17.10;75.40;;;;;;5003763;28;20452;-77
2022/09/13 00:25:41;;;;;;;10.93;7.80;;;17.10;75.40;;;;;;5007518;28;20912;-77
2022/09/13 00:28:09;;;;;;;12.10;8.27;;;17.10;75.30;;;;;;5003215;28;20460;-77
2022/09/13 00:30:37;;;;;;;14.13;7.80;;;17.00;75.30;;;;;;5001895;28;20468;-77
2022/09/13 00:33:05;;;;;;;11.97;8.10;;;17.00;75.20;;;;;;5002502;28;20570;-77
2022/09/13 00:35:32;;;;;;;12.00;8.60;;;17.00;75.10;;;;;;4999558;28;20485;-77
2022/09/13 00:38:01;;;;;;;12.40;8.13;;;16.90;75.10;;;;;;5001881;28;20547;-77
2022/09/13 00:40:29;;;;;;;14.30;8.90;;;16.90;75.10;;;;;;5002027;28;20504;-77
2022/09/13 00:42:59;;;;;;;12.53;8.47;;;16.90;75.20;;;;;;5001339;28;20476;-77
2022/09/13 00:45:27;;;;;;;12.67;9.20;;;16.80;75.20;;;;;;4997717;28;20543;-78
2022/09/13 00:47:58;;;;;;;12.70;8.23;;;16.80;75.20;;;;;;5000588;28;20456;-77
2022/09/13 00:50:31;;;;;;;13.80;9.73;;;16.80;75.10;;;;;;5000168;28;20562;-78
2022/09/13 00:53:04;;;;;;;13.40;9.23;;;16.80;75.10;;;;;;4998914;28;20581;-77
2022/09/13 00:55:38;;;;;;;13.37;9.13;;;16.70;75.10;;;;;;5005252;28;20535;-78
2022/09/13 00:58:13;;;;;;;13.30;8.67;;;16.70;75.00;;;;;;4998757;28;20464;-77
2022/09/13 01:00:41;;;;;;;12.07;8.83;;;16.70;75.00;;;;;;5002305;28;20849;-77
2022/09/13 01:03:12;;;;;;;13.83;9.70;;;16.60;75.10;;;;;;5001193;28;20504;-77
2022/09/13 01:05:43;;;;;;;12.53;8.63;;;16.60;75.20;;;;;;4998637;28;20981;-78
2022/09/13 01:08:16;;;;;;;12.67;9.23;;;16.60;75.20;;;;;;4998509;28;20500;-77
2022/09/13 01:10:46;;;;;;;12.50;9.27;;;16.60;75.30;;;;;;4994481;28;20457;-77
2022/09/13 01:13:19;;;;;;;14.93;9.07;;;16.60;75.30;;;;;;5004264;28;21032;-78
2022/09/13 01:15:47;;;;;;;11.67;8.43;;;16.60;75.30;;;;;;4998546;28;20859;-77
2022/09/13 01:18:15;;;;;;;14.50;9.40;;;16.60;75.20;;;;;;4998056;28;20779;-77
2022/09/13 01:21:03;;;;;;;14.47;9.87;;;16.50;75.20;;;;;;5002640;28;20461;-77
2022/09/13 01:23:45;;;;;;;11.97;8.70;;;16.50;75.20;;;;;;5002773;28;21103;-78
2022/09/13 01:26:47;;;;;;;11.80;8.63;;;16.50;75.40;;;;;;4997349;28;20614;-77
2022/09/13 01:30:02;;;;;;;13.37;8.70;;;16.40;75.40;;;;;;4998790;28;20465;-77
2022/09/13 01:32:41;;;;;;;14.73;9.20;;;16.40;75.40;;;;;;5014815;28;20477;-77
2022/09/13 01:35:17;;;;;;;12.83;8.87;;;16.30;75.40;;;;;;4998494;28;21256;-77
2022/09/13 01:37:53;;;;;;;13.53;9.33;;;16.30;75.50;;;;;;4999652;28;20492;-75
2022/09/13 01:40:38;;;;;;;13.20;8.50;;;16.30;75.50;;;;;;5014153;28;20528;-75
2022/09/13 01:43:25;;;;;;;11.17;8.10;;;16.20;75.50;;;;;;5000807;28;20543;-75
2022/09/13 01:46:04;;;;;;;14.47;9.97;;;16.20;75.60;;;;;;4994904;28;21032;-75
2022/09/13 01:48:44;;;;;;;13.50;9.70;;;16.20;75.50;;;;;;4993302;28;21164;-75
2022/09/13 01:51:19;;;;;;;13.07;9.37;;;16.10;75.50;;;;;;4998758;28;20558;-76
2022/09/13 01:53:55;;;;;;;12.40;8.93;;;16.10;75.50;;;;;;4998920;28;20461;-76
2022/09/13 01:56:28;;;;;;;12.33;9.10;;;16.00;75.70;;;;;;4994950;28;20496;-75
2022/09/13 01:59:00;;;;;;;12.70;9.00;;;16.00;75.80;;;;;;5003060;28;20939;-76
2022/09/13 02:01:34;;;;;;;13.73;9.00;;;16.00;75.90;;;;;;5012270;28;20537;-75
2022/09/13 02:04:09;;;;;;;13.70;9.27;;;16.00;75.90;;;;;;4997413;28;20448;-76
2022/09/13 02:06:44;;;;;;;11.63;8.60;;;16.00;76.00;;;;;;4997158;28;20507;-75
2022/09/13 02:09:16;;;;;;;16.80;9.90;;;16.00;76.20;;;;;;4997075;28;20527;-75
2022/09/13 02:11:53;;;;;;;12.73;9.40;;;16.10;76.30;;;;;;5000188;28;20481;-76
2022/09/13 02:14:26;;;;;;;15.70;8.13;;;16.10;76.30;;;;;;4995363;28;20475;-75
2022/09/13 02:17:01;;;;;;;11.73;8.10;;;16.20;76.30;;;;;;4994066;28;21142;-76
2022/09/13 02:19:35;;;;;;;13.00;8.87;;;16.20;76.20;;;;;;4997072;28;20492;-76
2022/09/13 02:22:06;;;;;;;13.40;8.13;;;16.20;76.10;;;;;;4995466;28;20484;-76
2022/09/13 02:24:38;;;;;;;11.40;8.10;;;16.20;76.00;;;;;;4998376;28;20442;-75
2022/09/13 02:27:09;;;;;;;12.30;7.90;;;16.20;76.00;;;;;;5000490;28;20492;-75
2022/09/13 02:29:41;;;;;;;11.60;7.50;;;16.10;75.90;;;;;;5012921;28;20549;-75
2022/09/13 02:32:16;;;;;;;10.10;6.90;;;16.10;75.70;;;;;;5011869;28;21173;-76
2022/09/13 02:34:47;;;;;;;10.17;6.80;;;16.10;75.60;;;;;;4993543;28;20450;-75
2022/09/13 02:37:15;;;;;;;15.00;8.97;;;16.00;75.70;;;;;;4994150;28;21216;-75
2022/09/13 02:39:49;;;;;;;11.93;7.73;;;16.00;75.60;;;;;;5003973;28;20883;-76
2022/09/13 02:42:20;;;;;;;11.07;8.43;;;15.90;75.60;;;;;;4998382;28;20576;-75
2022/09/13 02:44:51;;;;;;;13.77;9.07;;;15.90;75.40;;;;;;5004904;28;20903;-76
2022/09/13 02:47:32;;;;;;;12.20;7.80;;;15.80;75.50;;;;;;5001002;28;20518;-75
2022/09/13 02:50:11;;;;;;;13.40;9.20;;;15.80;75.50;;;;;;4999380;28;20962;-75
2022/09/13 02:52:47;;;;;;;12.63;9.20;;;15.70;75.70;;;;;;4996348;28;20899;-75
2022/09/13 02:55:22;;;;;;;15.47;8.90;;;15.70;75.80;;;;;;5002018;28;20491;-76
2022/09/13 02:58:02;;;;;;;13.70;9.30;;;15.70;75.90;;;;;;4998937;28;20476;-76
2022/09/13 03:00:30;;;;;;;11.53;8.60;;;15.70;76.00;;;;;;4998499;28;20555;-75
2022/09/13 03:03:05;;;;;;;16.47;10.50;;;15.70;76.00;;;;;;4996465;28;20615;-75
2022/09/13 03:05:33;;;;;;;12.93;9.17;;;15.70;76.00;;;;;;4995650;28;20453;-74
2022/09/13 03:08:01;;;;;;;15.47;9.87;;;15.60;76.00;;;;;;4997470;28;20519;-75
2022/09/13 03:10:40;;;;;;;13.13;9.17;;;15.60;75.90;;;;;;4998824;28;20491;-75
2022/09/13 03:13:24;;;;;;;11.87;8.30;;;15.60;76.10;;;;;;5002630;28;20539;-75
2022/09/13 03:16:06;;;;;;;12.70;7.90;;;15.60;76.20;;;;;;4994774;28;20458;-75
2022/09/13 03:18:47;;;;;;;12.67;8.77;;;15.60;76.10;;;;;;5003403;28;20476;-76
2022/09/13 03:21:34;;;;;;;16.40;10.00;;;15.60;76.10;;;;;;4995536;28;20667;-75
2022/09/13 03:24:14;;;;;;;13.17;8.73;;;15.60;76.00;;;;;;4997685;28;20470;-75
2022/09/13 03:26:51;;;;;;;11.37;7.63;;;15.60;76.00;;;;;;4997951;28;20511;-75
2022/09/13 03:29:28;;;;;;;11.90;7.83;;;15.60;75.90;;;;;;4996269;28;20508;-76
2022/09/13 03:32:15;;;;;;;13.17;7.83;;;15.60;75.90;;;;;;4994465;28;20551;-75
2022/09/13 03:34:53;;;;;;;16.70;9.17;;;15.60;75.90;;;;;;4997660;28;20866;-76
2022/09/13 03:37:27;;;;;;;13.10;8.70;;;15.50;76.00;;;;;;4995431;28;20543;-75
2022/09/13 03:40:00;;;;;;;14.60;9.93;;;15.60;76.00;;;;;;4998745;28;20514;-75
2022/09/13 03:42:34;;;;;;;21.33;10.70;;;15.60;76.10;;;;;;5001707;28;20484;-75
2022/09/13 03:45:05;;;;;;;18.63;11.57;;;15.60;76.00;;;;;;5003956;28;21038;-76
2022/09/13 03:47:35;;;;;;;20.50;13.30;;;15.50;76.00;;;;;;5004159;28;21020;-76
2022/09/13 03:50:07;;;;;;;29.77;14.60;;;15.50;76.10;;;;;;5007188;28;20501;-76
2022/09/13 03:52:35;;;;;;;73.50;16.10;;;15.50;76.20;;;;;;5000611;28;20517;-75
2022/09/13 03:55:03;;;;;;;25.50;16.37;;;15.50;76.30;;;;;;5005769;28;20517;-76
2022/09/13 03:57:31;;;;;;;27.50;14.80;;;15.50;76.60;;;;;;5002207;28;21090;-75
2022/09/13 04:00:00;;;;;;;42.83;17.47;;;15.50;76.80;;;;;;5001930;28;20449;-75
2022/09/13 04:02:28;;;;;;;29.10;16.87;;;15.60;77.00;;;;;;5001663;28;20823;-75
2022/09/13 04:04:57;;;;;;;39.37;18.20;;;15.60;77.10;;;;;;5012584;28;20889;-75
2022/09/13 04:07:26;;;;;;;31.00;17.10;;;15.60;77.20;;;;;;5001083;28;20549;-76
2022/09/13 04:09:55;;;;;;;51.27;17.50;;;15.60;77.30;;;;;;5000008;28;20445;-75
2022/09/13 04:12:23;;;;;;;51.80;17.50;;;15.60;77.50;;;;;;5002455;28;20532;-75
2022/09/13 04:14:51;;;;;;;36.83;18.70;;;15.60;77.60;;;;;;5003173;28;20453;-76
2022/09/13 04:17:19;;;;;;;39.80;19.67;;;15.70;77.70;;;;;;4997990;28;20539;-75
2022/09/13 04:19:47;;;;;;;57.70;19.77;;;15.60;77.80;;;;;;5007252;28;20899;-75
2022/09/13 04:22:15;;;;;;;41.97;18.70;;;15.70;77.80;;;;;;5005478;28;20500;-74
2022/09/13 04:24:45;;;;;;;70.37;18.07;;;15.60;77.80;;;;;;5005674;28;20456;-75
2022/09/13 04:27:13;;;;;;;53.40;16.87;;;15.60;77.90;;;;;;5004082;28;20498;-75
2022/09/13 04:29:41;;;;;;;49.07;15.77;;;15.60;78.00;;;;;;4999451;28;20462;-75
2022/09/13 04:32:09;;;;;;;57.03;16.90;;;15.60;78.10;;;;;;5006970;28;20488;-75
2022/09/13 04:34:37;;;;;;;51.27;16.20;;;15.50;78.10;;;;;;5001141;28;21201;-75
2022/09/13 04:37:05;;;;;;;37.23;15.80;;;15.50;78.10;;;;;;4996625;28;20488;-75
2022/09/13 04:39:33;;;;;;;23.17;14.80;;;15.40;78.10;;;;;;4999295;28;20458;-75
2022/09/13 04:42:03;;;;;;;29.03;14.00;;;15.30;78.30;;;;;;5001932;28;20499;-75
2022/09/13 04:44:32;;;;;;;22.10;13.87;;;15.30;78.60;;;;;;5004568;28;20544;-75
2022/09/13 04:47:00;;;;;;;23.57;14.20;;;15.40;78.70;;;;;;5002525;28;21047;-75
2022/09/13 04:49:27;;;;;;;19.50;12.80;;;15.40;78.70;;;;;;5000265;28;20453;-75
2022/09/13 04:51:55;;;;;;;19.47;13.90;;;15.40;78.80;;;;;;5005955;28;20472;-76
2022/09/13 04:54:23;;;;;;;17.73;12.80;;;15.40;78.90;;;;;;5001473;28;20469;-75
2022/09/13 04:56:51;;;;;;;19.60;13.57;;;15.40;79.00;;;;;;5002320;28;20486;-75
2022/09/13 04:59:20;;;;;;;21.07;13.60;;;15.50;79.00;;;;;;5004150;28;20535;-75
2022/09/13 05:01:48;;;;;;;19.90;12.83;;;15.50;79.00;;;;;;4999337;28;20520;-76
2022/09/13 05:04:16;;;;;;;18.70;12.63;;;15.50;79.10;;;;;;5000969;28;20459;-75
2022/09/13 05:06:46;;;;;;;22.93;13.20;;;15.60;79.00;;;;;;5001261;28;20511;-75
2022/09/13 05:09:15;;;;;;;19.27;13.33;;;15.60;79.00;;;;;;4999550;28;20453;-75
2022/09/13 05:11:43;;;;;;;19.00;13.20;;;15.60;79.00;;;;;;5000810;28;20490;-75
2022/09/13 05:14:11;;;;;;;16.77;11.80;;;15.60;79.00;;;;;;5001773;28;20950;-75
2022/09/13 05:16:41;;;;;;;18.70;12.10;;;15.70;79.00;;;;;;5002174;28;20465;-76
2022/09/13 05:19:10;;;;;;;16.17;11.60;;;15.70;79.00;;;;;;5000468;28;20483;-75
2022/09/13 05:21:38;;;;;;;18.57;12.27;;;15.70;79.00;;;;;;5003887;28;20474;-75
2022/09/13 05:24:06;;;;;;;15.47;11.00;;;15.70;79.00;;;;;;5003109;28;20551;-76
2022/09/13 05:26:34;;;;;;;17.07;11.70;;;15.70;79.00;;;;;;5004479;28;20571;-75
2022/09/13 05:29:02;;;;;;;15.53;10.90;;;15.70;79.00;;;;;;5003017;28;20601;-76
2022/09/13 05:31:32;;;;;;;16.83;10.87;;;15.70;79.00;;;;;;5001979;28;20483;-75
2022/09/13 05:34:03;;;;;;;16.70;11.60;;;15.70;79.00;;;;;;5003577;28;20544;-76
2022/09/13 05:36:32;;;;;;;17.20;11.40;;;15.70;79.00;;;;;;5000989;28;20818;-75
2022/09/13 05:39:00;;;;;;;17.17;11.33;;;15.80;79.00;;;;;;4999236;28;20476;-75
2022/09/13 05:41:48;;;;;;;14.77;10.47;;;15.80;78.90;;;;;;5002895;28;20481;-76
2022/09/13 05:44:16;;;;;;;14.70;9.63;;;15.80;78.90;;;;;;5005424;28;21019;-75
2022/09/13 05:46:47;;;;;;;14.70;10.07;;;15.80;78.90;;;;;;5001888;28;20516;-75
2022/09/13 05:49:16;;;;;;;15.93;10.90;;;15.80;78.90;;;;;;5000547;28;20496;-75
2022/09/13 05:51:44;;;;;;;14.80;10.97;;;15.80;78.90;;;;;;5001628;28;20477;-75
2022/09/13 05:54:12;;;;;;;17.63;12.30;;;15.80;79.00;;;;;;5000203;28;20465;-75
2022/09/13 05:56:41;;;;;;;16.87;10.60;;;15.90;78.90;;;;;;5004050;28;20450;-76
2022/09/13 05:59:12;;;;;;;14.90;11.00;;;15.90;79.00;;;;;;4998794;28;20521;-75
2022/09/13 06:01:40;;;;;;;14.93;10.87;;;15.90;79.00;;;;;;5004165;28;20492;-75
2022/09/13 06:04:11;;;;;;;18.40;11.33;;;16.00;79.00;;;;;;5006960;28;20452;-75
2022/09/13 06:06:40;;;;;;;15.97;10.53;;;16.00;79.00;;;;;;5006734;28;20461;-75
2022/09/13 06:09:11;;;;;;;14.13;10.20;;;16.00;78.90;;;;;;5000243;28;20547;-75
2022/09/13 06:11:38;;;;;;;16.47;10.93;;;16.00;78.90;;;;;;5006844;28;20477;-75
2022/09/13 06:14:06;;;;;;;13.83;9.23;;;16.10;78.90;;;;;;5009081;28;20769;-75
2022/09/13 06:16:34;;;;;;;16.00;11.20;;;16.10;78.90;;;;;;5004931;28;20492;-75
2022/09/13 06:19:02;;;;;;;14.50;10.23;;;16.10;78.90;;;;;;5008633;28;21071;-75
2022/09/13 06:21:30;;;;;;;12.97;9.73;;;16.10;78.90;;;;;;5004691;28;20848;-75
2022/09/13 06:24:00;;;;;;;15.73;10.47;;;16.10;79.00;;;;;;5010814;28;20497;-75
2022/09/13 06:26:28;;;;;;;16.27;9.73;;;16.20;79.00;;;;;;5006460;28;20483;-75
2022/09/13 06:28:58;;;;;;;15.07;10.07;;;16.20;79.00;;;;;;5011163;28;20843;-75
2022/09/13 06:31:28;;;;;;;14.50;10.53;;;16.20;79.10;;;;;;5007081;28;20473;-75
2022/09/13 06:33:58;;;;;;;15.10;10.73;;;16.30;79.10;;;;;;5008553;28;20453;-75
2022/09/13 06:36:26;;;;;;;14.87;10.90;;;16.30;79.20;;;;;;5007001;28;20485;-75
2022/09/13 06:38:55;;;;;;;16.43;11.10;;;16.30;79.20;;;;;;5003421;28;20476;-75
2022/09/13 06:41:26;;;;;;;16.00;11.10;;;16.30;79.30;;;;;;5005341;28;20491;-76
2022/09/13 06:43:55;;;;;;;16.50;11.43;;;16.30;79.30;;;;;;5000629;28;20457;-76
2022/09/13 06:46:23;;;;;;;15.33;11.13;;;16.40;79.40;;;;;;4998585;28;20460;-75
2022/09/13 06:48:53;;;;;;;15.80;11.20;;;16.40;79.40;;;;;;5002630;28;21013;-75
2022/09/13 06:51:22;;;;;;;13.73;10.40;;;16.40;79.40;;;;;;5003521;28;21229;-75
2022/09/13 06:53:52;;;;;;;16.90;11.37;;;16.50;79.50;;;;;;4996144;28;20994;-75
2022/09/13 06:56:22;;;;;;;16.53;11.07;;;16.50;79.50;;;;;;4998634;28;20465;-76
2022/09/13 06:58:55;;;;;;;17.43;10.60;;;16.50;79.40;;;;;;5000991;28;20522;-75
2022/09/13 07:01:25;;;;;;;15.47;10.53;;;16.50;79.50;;;;;;5001111;28;20490;-75
2022/09/13 07:03:59;;;;;;;17.07;10.83;;;16.60;79.60;;;;;;5001521;28;20480;-76
2022/09/13 07:06:30;;;;;;;18.43;11.53;;;16.60;79.60;;;;;;4999877;28;20515;-76
2022/09/13 07:08:59;;;;;;;17.33;11.60;;;16.60;79.60;;;;;;5002540;28;20531;-75
2022/09/13 07:11:33;;;;;;;16.10;11.87;;;16.70;79.60;;;;;;5002582;28;20477;-75
2022/09/13 07:14:02;;;;;;;18.03;12.40;;;16.70;79.70;;;;;;5001179;28;20469;-76
2022/09/13 07:16:32;;;;;;;16.00;11.77;;;16.70;79.60;;;;;;5002434;28;20911;-76
2022/09/13 07:19:04;;;;;;;17.80;12.20;;;16.80;79.60;;;;;;5000923;28;20478;-75
2022/09/13 07:21:33;;;;;;;18.10;12.30;;;16.80;79.70;;;;;;4999570;28;20563;-75
2022/09/13 07:24:02;;;;;;;15.13;11.70;;;16.80;79.70;;;;;;5010339;28;21202;-75
2022/09/13 07:26:30;;;;;;;15.90;11.70;;;16.90;79.70;;;;;;5000226;28;20461;-76
2022/09/13 07:29:02;;;;;;;17.37;11.90;;;16.90;79.80;;;;;;4999753;28;20461;-76
2022/09/13 07:31:32;;;;;;;18.50;12.03;;;16.90;79.80;;;;;;5003424;28;20505;-76
2022/09/13 07:34:01;;;;;;;14.70;12.13;;;17.00;79.80;;;;;;5005600;28;20571;-76
2022/09/13 07:36:31;;;;;;;19.10;13.43;;;17.00;79.80;;;;;;5003666;28;20922;-76
2022/09/13 07:39:00;;;;;;;18.90;11.77;;;17.00;79.90;;;;;;5005602;28;20446;-76
2022/09/13 07:41:29;;;;;;;16.53;12.10;;;17.00;79.90;;;;;;5002144;28;20890;-76
2022/09/13 07:43:59;;;;;;;13.93;9.87;;;17.10;80.00;;;;;;5004596;28;20500;-76
2022/09/13 07:46:31;;;;;;;15.70;11.47;;;17.10;80.10;;;;;;5001807;28;20496;-76
2022/09/13 07:49:01;;;;;;;63.43;15.90;;;17.10;80.20;;;;;;5013572;28;20975;-75
2022/09/13 07:51:30;;;;;;;38.70;13.73;;;17.10;80.20;;;;;;4992613;28;20564;-75
2022/09/13 07:54:01;;;;;;;39.97;13.93;;;17.20;80.30;;;;;;4996027;28;20461;-75
2022/09/13 07:56:31;;;;;;;18.77;12.10;;;17.20;80.30;;;;;;4993444;28;20461;-75
2022/09/13 07:59:01;;;;;;;35.17;17.03;;;17.20;80.40;;;;;;4995108;28;20570;-75
2022/09/13 08:01:35;;;;;;;44.33;16.63;;;17.30;80.40;;;;;;4998752;28;21360;-75
2022/09/13 08:04:05;;;;;;;22.07;13.70;;;17.30;80.40;;;;;;4997252;28;20471;-75
2022/09/13 08:06:35;;;;;;;24.80;14.83;;;17.30;80.40;;;;;;4994673;28;20457;-75
2022/09/13 08:09:05;;;;;;;22.17;12.83;;;17.30;80.40;;;;;;5000188;28;20509;-76
2022/09/13 08:11:35;;;;;;;30.90;13.00;;;17.40;80.50;;;;;;4996635;28;20925;-75
2022/09/13 08:14:04;;;;;;;25.50;13.63;;;17.40;80.60;;;;;;4996169;28;20461;-75
2022/09/13 08:16:34;;;;;;;18.17;12.27;;;17.40;80.50;;;;;;5001101;28;20544;-75
2022/09/13 08:19:03;;;;;;;47.00;42.10;;;17.40;80.60;;;;;;5003865;28;21022;-75
2022/09/13 08:21:34;;;;;;;38.17;28.30;;;17.50;80.60;;;;;;4997476;28;20478;-75
2022/09/13 08:24:03;;;;;;;19.87;14.83;;;17.50;80.70;;;;;;5001103;28;20463;-75
2022/09/13 08:26:33;;;;;;;18.97;12.50;;;17.50;80.60;;;;;;4998102;28;20449;-75
2022/09/13 08:29:03;;;;;;;19.63;12.70;;;17.60;80.60;;;;;;5006438;28;20445;-75
2022/09/13 08:31:33;;;;;;;18.63;13.80;;;17.60;80.60;;;;;;5013947;28;20512;-75
2022/09/13 08:34:02;;;;;;;17.83;12.90;;;17.60;80.60;;;;;;4999260;28;21272;-75
2022/09/13 08:36:30;;;;;;;18.40;12.77;;;17.60;80.60;;;;;;5002623;28;21238;-76
2022/09/13 08:39:00;;;;;;;17.67;12.50;;;17.70;80.60;;;;;;5003901;28;20595;-75
2022/09/13 08:41:51;;;;;;;18.13;12.30;;;17.70;80.60;;;;;;5001102;28;20492;-75
2022/09/13 08:44:25;;;;;;;18.63;12.87;;;17.70;80.50;;;;;;4998983;28;20550;-75
2022/09/13 08:47:02;;;;;;;17.70;12.83;;;17.70;80.50;;;;;;4997328;28;20491;-75
2022/09/13 08:49:33;;;;;;;29.23;16.10;;;17.80;80.60;;;;;;4996226;28;20461;-75
2022/09/13 08:52:11;;;;;;;24.10;15.37;;;17.80;80.60;;;;;;4999374;28;20507;-75
2022/09/13 08:54:39;;;;;;;20.73;12.93;;;17.90;80.60;;;;;;5003039;28;20462;-75
2022/09/13 08:57:16;;;;;;;20.80;13.10;;;17.90;80.70;;;;;;5003501;28;20449;-75
2022/09/13 08:59:54;;;;;;;18.07;10.90;;;17.90;80.70;;;;;;5002803;28;20543;-75
2022/09/13 09:02:37;;;;;;;16.70;11.87;;;18.00;80.80;;;;;;5001628;28;20499;-76
2022/09/13 09:05:15;;;;;;;17.50;12.90;;;18.00;80.90;;;;;;5001922;28;20552;-75
2022/09/13 09:07:45;;;;;;;16.43;11.87;;;18.00;81.00;;;;;;5016622;28;20500;-75
2022/09/13 09:10:17;;;;;;;19.67;12.40;;;18.00;81.00;;;;;;5001918;28;20480;-75
2022/09/13 09:12:48;;;;;;;15.50;10.80;;;18.00;81.20;;;;;;5000313;28;21050;-75
2022/09/13 09:15:20;;;;;;;20.10;10.03;;;18.10;81.30;;;;;;4999195;28;20458;-76
2022/09/13 09:17:56;;;;;;;12.57;8.83;;;18.10;81.30;;;;;;5003150;28;20853;-76
2022/09/13 09:20:31;;;;;;;12.57;8.30;;;18.20;81.40;;;;;;4999822;28;20476;-75
2022/09/13 09:23:02;;;;;;;57.13;13.60;;;18.20;81.40;;;;;;4998545;28;20488;-75
2022/09/13 09:25:31;;;;;;;41.17;11.60;;;18.30;81.50;;;;;;5001824;28;20816;-75
2022/09/13 09:27:59;;;;;;;16.23;8.73;;;18.40;81.50;;;;;;5002061;28;20516;-75
2022/09/13 09:30:37;;;;;;;34.53;9.37;;;18.50;81.50;;;;;;4999497;28;20482;-74
2022/09/13 09:33:21;;;;;;;14.30;7.87;;;18.70;81.40;;;;;;4999053;28;20564;-74
2022/09/13 09:35:59;;;;;;;10.60;7.83;;;18.80;81.30;;;;;;4996985;28;20504;-74
2022/09/13 09:38:38;;;;;;;12.47;8.70;;;18.90;81.10;;;;;;4997113;28;20480;-75
2022/09/13 09:41:15;;;;;;;12.20;8.80;;;19.00;81.00;;;;;;5002165;28;20496;-74
2022/09/13 09:43:47;;;;;;;31.97;9.53;;;19.00;81.00;;;;;;4997029;28;21098;-74
2022/09/13 09:46:17;;;;;;;37.27;11.67;;;19.10;80.90;;;;;;4999579;28;20965;-74
2022/09/13 09:48:52;;;;;;;45.93;11.40;;;19.10;80.90;;;;;;5003231;28;20458;-74
2022/09/13 09:51:23;;;;;;;24.70;9.83;;;19.20;80.80;;;;;;5000959;28;20479;-74
2022/09/13 09:53:59;;;;;;;12.97;8.90;;;19.30;80.70;;;;;;5001756;28;20890;-75
2022/09/13 09:56:31;;;;;;;28.20;10.07;;;19.30;80.60;;;;;;5004528;28;20506;-74
2022/09/13 09:59:01;;;;;;;70.93;15.50;;;19.40;80.60;;;;;;5001816;28;20461;-74
2022/09/13 10:01:31;;;;;;;28.83;10.27;;;19.40;80.50;;;;;;4999787;28;20496;-74
2022/09/13 10:04:08;;;;;;;20.17;10.60;;;19.50;80.40;;;;;;5000309;28;20485;-74
2022/09/13 10:06:37;;;;;;;47.97;15.40;;;19.50;80.30;;;;;;5002035;28;20450;-75
2022/09/13 10:09:08;;;;;;;21.27;10.10;;;19.60;80.20;;;;;;4999550;28;20925;-75
2022/09/13 10:11:45;;;;;;;16.40;9.90;;;19.60;80.20;;;;;;5002364;28;20535;-74
2022/09/13 10:14:34;;;;;;;15.13;8.07;;;19.60;80.20;;;;;;4995640;28;20508;-74
2022/09/13 10:17:05;;;;;;;33.37;12.03;;;19.60;80.10;;;;;;4998425;28;20486;-75
2022/09/13 10:19:35;;;;;;;22.03;11.63;;;19.60;80.10;;;;;;5004364;28;20496;-74
2022/09/13 10:22:05;;;;;;;44.90;14.00;;;19.50;80.10;;;;;;5000236;28;20516;-74
2022/09/13 10:24:33;;;;;;;74.70;15.63;;;19.50;80.10;;;;;;4999170;28;20454;-74
2022/09/13 10:27:03;;;;;;;51.17;13.87;;;19.50;80.10;;;;;;5000803;28;20490;-75
2022/09/13 10:29:31;;;;;;;20.37;12.00;;;19.50;80.10;;;;;;4993988;28;20490;-75
2022/09/13 10:32:07;;;;;;;42.30;15.30;;;19.50;80.20;;;;;;5002930;28;20576;-75
2022/09/13 10:34:37;;;;;;;33.07;13.30;;;19.50;80.30;;;;;;4996674;28;20457;-74
2022/09/13 10:37:13;;;;;;;105.27;24.87;;;19.50;80.30;;;;;;4997360;28;20484;-74
2022/09/13 10:40:01;;;;;;;43.57;14.40;;;19.50;80.30;;;;;;4998985;28;20485;-75
2022/09/13 10:42:29;;;;;;;25.77;12.10;;;19.50;80.40;;;;;;4998754;28;20490;-75
2022/09/13 10:45:01;;;;;;;21.00;11.10;;;19.50;80.40;;;;;;5000335;28;20517;-74
2022/09/13 10:47:34;;;;;;;17.57;11.43;;;19.50;80.50;;;;;;5000089;28;20512;-75
2022/09/13 10:50:20;;;;;;;17.10;11.10;;;19.50;80.60;;;;;;4995877;28;20885;-75
2022/09/13 10:52:50;;;;;;;19.57;11.37;;;19.60;80.70;;;;;;4998119;28;21207;-74
2022/09/13 10:55:27;;;;;;;14.33;9.80;;;19.60;80.70;;;;;;4994834;28;21052;-75
2022/09/13 10:58:12;;;;;;;20.20;10.83;;;19.60;80.80;;;;;;5010878;28;20837;-75
2022/09/13 11:01:00;;;;;;;17.13;10.30;;;19.60;80.80;;;;;;4999225;28;20486;-75
2022/09/13 11:03:39;;;;;;;16.77;10.57;;;19.60;80.90;;;;;;4995675;28;20513;-74
2022/09/13 11:06:16;;;;;;;19.43;10.80;;;19.60;81.10;;;;;;4996464;28;20891;-74
2022/09/13 11:08:52;;;;;;;19.17;11.40;;;19.60;81.20;;;;;;4999797;28;20453;-74
2022/09/13 11:11:27;;;;;;;13.97;10.77;;;19.60;81.40;;;;;;4995048;28;21321;-74
2022/09/13 11:14:07;;;;;;;16.33;9.60;;;19.60;81.50;;;;;;5003761;28;20550;-74
2022/09/13 11:16:48;;;;;;;14.60;10.50;;;19.60;81.60;;;;;;5000846;28;20958;-74
2022/09/13 11:19:49;;;;;;;15.80;10.73;;;19.70;81.70;;;;;;4999743;28;20469;-75
2022/09/13 11:22:45;;;;;;;15.90;10.07;;;19.70;81.80;;;;;;5001736;28;20532;-73
2022/09/13 11:25:24;;;;;;;11.67;9.00;;;19.70;81.80;;;;;;4997284;28;20459;-74
2022/09/13 11:27:59;;;;;;;14.93;9.80;;;19.70;81.90;;;;;;4999947;28;20457;-74
2022/09/13 11:30:31;;;;;;;16.50;9.30;;;19.80;82.00;;;;;;4997396;28;20450;-74
2022/09/13 11:33:18;;;;;;;26.03;19.13;;;19.80;82.00;;;;;;4994681;28;20575;-74
2022/09/13 11:35:59;;;;;;;39.53;28.47;;;19.80;82.00;;;;;;4997357;28;20459;-73
2022/09/13 11:38:40;;;;;;;39.73;25.47;;;19.80;82.00;;;;;;4996128;28;20456;-73
2022/09/13 11:41:17;;;;;;;37.97;21.10;;;19.80;82.20;;;;;;5000870;28;20460;-74
2022/09/13 11:44:00;;;;;;;22.23;14.63;;;19.90;82.20;;;;;;4999141;28;20992;-73
2022/09/13 11:46:39;;;;;;;35.83;13.80;;;19.90;82.30;;;;;;5000700;28;20489;-73
2022/09/13 11:49:37;;;;;;;26.83;11.40;;;19.90;82.40;;;;;;4998215;28;20503;-73
2022/09/13 11:52:12;;;;;;;17.80;9.83;;;20.00;82.40;;;;;;5000969;28;20528;-73
2022/09/13 11:54:54;;;;;;;19.37;9.83;;;20.00;82.60;;;;;;5002271;28;20489;-73
2022/09/13 11:57:26;;;;;;;21.50;10.40;;;20.10;82.70;;;;;;5001668;28;20485;-74
2022/09/13 11:59:59;;;;;;;28.27;10.70;;;20.10;82.70;;;;;;5000984;28;20487;-74
2022/09/13 12:02:32;;;;;;;29.40;10.47;;;20.20;82.80;;;;;;5002387;28;20486;-73
2022/09/13 12:05:04;;;;;;;17.53;10.67;;;20.20;82.80;;;;;;5002243;28;20833;-74
2022/09/13 12:07:53;;;;;;;16.23;8.43;;;20.30;82.90;;;;;;5006009;28;20519;-73
2022/09/13 12:10:25;;;;;;;12.33;8.63;;;20.40;82.90;;;;;;5006046;28;20485;-73
2022/09/13 12:12:55;;;;;;;14.20;9.03;;;20.50;82.80;;;;;;5004319;28;20475;-73
2022/09/13 12:15:32;;;;;;;16.37;10.73;;;20.50;82.90;;;;;;5000196;28;20628;-74
2022/09/13 12:18:05;;;;;;;12.30;9.20;;;20.50;82.90;;;;;;5003127;28;20460;-74
2022/09/13 12:20:36;;;;;;;11.07;8.03;;;20.60;82.90;;;;;;5002413;28;20467;-73
2022/09/13 12:23:11;;;;;;;16.70;8.90;;;20.60;82.90;;;;;;5004014;28;20548;-74
2022/09/13 12:25:48;;;;;;;11.37;7.93;;;20.70;82.90;;;;;;4998400;28;20467;-74
2022/09/13 12:28:21;;;;;;;11.20;7.30;;;20.70;82.90;;;;;;5001429;28;20471;-73
2022/09/13 12:30:54;;;;;;;14.50;8.67;;;20.80;82.90;;;;;;4999476;28;20489;-74
2022/09/13 12:33:22;;;;;;;10.83;8.03;;;20.80;82.90;;;;;;4998154;28;20453;-74
2022/09/13 12:36:03;;;;;;;13.67;8.43;;;20.80;83.00;;;;;;5002235;28;20997;-74
2022/09/13 12:39:10;;;;;;;13.73;9.60;;;20.80;83.10;;;;;;5002471;28;20494;-73
2022/09/13 12:41:52;;;;;;;15.23;8.17;;;20.90;83.10;;;;;;5002455;28;20996;-74
2022/09/13 12:44:41;;;;;;;14.70;8.47;;;20.90;83.10;;;;;;5004621;28;20493;-74
2022/09/13 12:47:50;;;;;;;14.27;8.20;;;20.90;83.10;;;;;;5004633;28;20544;-74
2022/09/13 12:50:43;;;;;;;11.77;8.07;;;20.90;83.10;;;;;;4961454;28;20865;-74
2022/09/13 12:53:34;;;;;;;15.63;8.20;;;20.90;83.10;;;;;;4995383;28;20495;-74
2022/09/13 12:56:16;;;;;;;11.67;7.53;;;20.90;83.10;;;;;;4996984;28;20522;-73
2022/09/13 12:59:03;;;;;;;10.37;7.67;;;20.90;83.10;;;;;;5003189;28;20469;-74
2022/09/13 13:01:31;;;;;;;11.23;6.57;;;21.00;83.20;;;;;;4999247;28;20506;-74